Time;durP1;ratioP1;P1;durP2;ratioP2;P2;SDS_P1;SDS_P2;PMS_P1;PMS_P2;Temp;Humidity;BMP_temperature;BMP_pressure;BME280_temperature;BME280_humidity;BME280_pressure;Samples;Min_cycle;Max_cycle;Signal;HPM_P1;HPM_P2
2021/06/23 00:02:23;;;;;;;28.25;18.57;;;;;;;20.59;89.69;98839.26;4065350;86;21090;-79
2021/06/23 00:08:25;;;;;;;25.02;18.25;;;;;;;20.65;89.55;98838.86;4062221;86;21226;-80
2021/06/23 00:14:32;;;;;;;26.97;18.37;;;;;;;20.68;89.63;98851.88;4097097;85;21515;-79
2021/06/23 00:20:33;;;;;;;27.67;19.20;;;;;;;20.67;89.54;98853.87;4060721;86;21424;-77
2021/06/23 00:26:36;;;;;;;31.65;19.35;;;;;;;20.64;89.75;98845.03;4083186;86;21065;-77
2021/06/23 00:32:43;;;;;;;30.00;20.62;;;;;;;20.65;89.90;98849.38;4087243;85;21107;-76
2021/06/23 00:38:44;;;;;;;24.37;16.83;;;;;;;20.64;89.81;98849.20;4092698;85;21074;-77
2021/06/23 00:44:45;;;;;;;31.23;22.55;;;;;;;20.65;90.06;98850.78;4088363;86;21003;-77
2021/06/23 00:50:48;;;;;;;27.62;19.27;;;;;;;20.65;90.22;98877.20;4060049;85;21658;-78
2021/06/23 00:57:01;;;;;;;25.30;18.12;;;;;;;20.56;90.28;98873.52;4052769;86;21347;-78
2021/06/23 01:03:08;;;;;;;27.07;18.12;;;;;;;20.59;90.66;98890.11;4085248;85;21082;-78
2021/06/23 01:09:14;;;;;;;30.43;22.32;;;;;;;20.62;90.69;98885.04;4082711;85;21019;-78
2021/06/23 01:15:32;;;;;;;29.80;21.40;;;;;;;20.68;90.70;98897.77;4086345;85;21555;-76
2021/06/23 01:21:45;;;;;;;35.55;19.40;;;;;;;20.68;90.87;98894.39;4085169;85;21082;-78
2021/06/23 01:27:51;;;;;;;30.48;21.25;;;;;;;20.72;90.80;98890.87;4072110;85;21499;-78
2021/06/23 01:33:54;;;;;;;33.33;21.10;;;;;;;20.78;90.83;98902.99;4104219;85;21770;-78
2021/06/23 01:39:58;;;;;;;42.60;22.55;;;;;;;20.79;90.71;98896.22;4079276;85;21083;-78
2021/06/23 01:45:59;;;;;;;30.45;19.45;;;;;;;20.75;90.77;98911.47;4083884;84;21463;-78
2021/06/23 01:52:05;;;;;;;35.73;23.57;;;;;;;20.74;90.85;98919.03;4077923;85;21644;-78
2021/06/23 01:58:27;;;;;;;36.77;20.97;;;;;;;20.78;90.94;98924.48;4085955;85;21032;-78
2021/06/23 02:05:11;;;;;;;32.40;22.45;;;;;;;20.83;90.80;98928.88;4078935;86;21102;-77
2021/06/23 02:11:47;;;;;;;40.05;21.17;;;;;;;20.81;91.10;98931.34;4102448;85;21075;-77
2021/06/23 02:17:53;;;;;;;35.35;18.52;;;;;;;20.84;91.02;98930.45;4110449;84;21002;-79
2021/06/23 02:24:00;;;;;;;31.42;18.80;;;;;;;20.82;91.12;98932.89;4062956;84;20999;-78
2021/06/23 02:30:05;;;;;;;35.03;20.48;;;;;;;20.85;91.14;98945.91;4121649;84;21113;-77
2021/06/23 02:36:10;;;;;;;28.70;18.77;;;;;;;20.87;91.27;98940.69;4059776;86;21035;-78
2021/06/23 02:42:13;;;;;;;38.73;24.70;;;;;;;20.91;91.15;98945.52;4056465;86;21060;-77
2021/06/23 02:48:15;;;;;;;36.60;22.15;;;;;;;20.97;90.93;98952.11;4058954;86;21090;-78
2021/06/23 02:54:27;;;;;;;41.98;22.35;;;;;;;20.94;91.00;98953.60;4041176;86;21019;-78
2021/06/23 03:00:33;;;;;;;35.68;23.40;;;;;;;20.91;91.10;98948.30;4092346;84;21622;-80
2021/06/23 03:06:35;;;;;;;35.75;25.32;;;;;;;20.88;91.06;98949.19;4092861;85;22229;-78
2021/06/23 03:12:39;;;;;;;52.80;25.48;;;;;;;20.85;91.30;98953.47;4093708;85;21094;-79
2021/06/23 03:19:00;;;;;;;34.83;22.65;;;;;;;20.82;91.37;98980.18;4088392;85;21089;-76
2021/06/23 03:25:05;;;;;;;30.48;23.45;;;;;;;20.88;91.32;98979.80;4088819;85;21050;-79
2021/06/23 03:31:07;;;;;;;32.95;24.43;;;;;;;20.93;91.19;98986.20;4091948;85;21053;-78
2021/06/23 03:37:12;;;;;;;45.50;27.85;;;;;;;20.93;91.14;98997.33;4098452;85;21117;-79
2021/06/23 03:43:15;;;;;;;41.45;26.97;;;;;;;20.82;91.33;98992.70;4055164;86;21019;-79
2021/06/23 03:49:21;;;;;;;35.40;21.50;;;;;;;20.83;91.45;98998.42;4118652;85;21132;-77
2021/06/23 03:55:28;;;;;;;29.98;21.37;;;;;;;20.87;91.43;99001.11;4070453;85;21759;-79
2021/06/23 04:01:30;;;;;;;32.50;22.73;;;;;;;20.94;91.34;99003.05;4089649;85;20973;-78
2021/06/23 04:07:41;;;;;;;36.38;21.73;;;;;;;21.00;91.21;99004.72;4088540;85;21038;-79
2021/06/23 04:13:47;;;;;;;31.75;21.48;;;;;;;20.96;91.21;99008.20;4087520;85;21145;-77
2021/06/23 04:19:49;;;;;;;32.65;21.60;;;;;;;20.97;91.20;99023.70;4068346;85;21098;-79
2021/06/23 04:26:03;;;;;;;37.73;21.80;;;;;;;20.99;91.12;99033.16;4082972;85;21062;-79
2021/06/23 04:32:05;;;;;;;40.30;26.20;;;;;;;21.05;91.06;99037.54;4110952;85;21057;-77
2021/06/23 04:38:11;;;;;;;40.98;26.15;;;;;;;21.06;91.08;99035.73;4040362;86;21120;-78
2021/06/23 04:44:13;;;;;;;39.70;23.25;;;;;;;21.04;91.04;99043.73;4102992;85;21157;-78
2021/06/23 04:50:14;;;;;;;38.80;26.05;;;;;;;21.10;91.16;99041.17;4121266;84;21554;-77
2021/06/23 04:56:18;;;;;;;41.08;26.27;;;;;;;21.09;91.09;99047.97;4125945;84;21075;-78
2021/06/23 05:02:21;;;;;;;40.12;25.97;;;;;;;21.11;90.94;99046.30;4089595;84;21078;-80
2021/06/23 05:08:23;;;;;;;42.95;28.50;;;;;;;21.14;90.90;99037.69;4094220;85;21057;-78
2021/06/23 05:14:24;;;;;;;41.65;23.12;;;;;;;21.06;91.10;99037.12;4135128;84;21016;-78
2021/06/23 05:20:26;;;;;;;45.67;27.02;;;;;;;21.14;91.12;99030.09;4125079;84;21026;-78
2021/06/23 05:26:28;;;;;;;43.15;23.42;;;;;;;21.20;91.06;99040.08;4122111;84;21071;-78
2021/06/23 05:32:29;;;;;;;46.20;26.95;;;;;;;21.22;90.96;99045.98;4077994;86;21611;-77
2021/06/23 05:38:31;;;;;;;38.92;26.02;;;;;;;21.29;90.94;99042.97;4087331;85;21070;-78
2021/06/23 05:44:33;;;;;;;35.65;24.45;;;;;;;21.32;90.90;99049.03;4094176;85;21113;-79
2021/06/23 05:50:35;;;;;;;41.55;21.80;;;;;;;21.36;90.82;99061.63;4031984;85;21556;-78
2021/06/23 05:56:38;;;;;;;40.28;27.07;;;;;;;21.38;90.74;99066.74;4059770;86;22279;-79
2021/06/23 06:02:41;;;;;;;32.00;20.35;;;;;;;21.44;90.86;99074.10;4068974;85;21059;-79
2021/06/23 06:08:42;;;;;;;33.05;22.75;;;;;;;21.48;90.67;99085.14;4033877;85;21021;-79
2021/06/23 06:14:45;;;;;;;36.40;23.02;;;;;;;21.48;90.55;99093.48;4048149;86;21041;-79
2021/06/23 06:20:47;;;;;;;31.55;21.50;;;;;;;21.52;90.65;99093.55;4038847;85;21875;-78
2021/06/23 06:26:48;;;;;;;33.48;21.95;;;;;;;21.50;90.81;99104.34;4050347;85;21072;-80
2021/06/23 06:32:50;;;;;;;32.08;21.42;;;;;;;21.57;90.72;99118.66;3958352;87;22278;-79
2021/06/23 06:38:52;;;;;;;27.58;19.82;;;;;;;21.60;90.54;99128.91;4059283;85;21126;-79
2021/06/23 06:44:53;;;;;;;33.73;20.25;;;;;;;21.63;90.31;99142.73;4068506;85;21588;-78
2021/06/23 06:50:55;;;;;;;27.80;19.15;;;;;;;21.68;90.31;99144.19;4100829;85;21715;-79
2021/06/23 06:56:57;;;;;;;26.45;19.50;;;;;;;21.74;90.11;99150.76;4143637;84;21066;-77
2021/06/23 07:02:59;;;;;;;28.12;20.62;;;;;;;21.82;90.14;99140.19;4167450;84;21049;-79
2021/06/23 07:09:00;;;;;;;28.73;18.20;;;;;;;21.83;90.15;99146.74;4167698;84;21708;-79
2021/06/23 07:15:03;;;;;;;27.70;18.98;;;;;;;21.89;90.09;99146.34;4168458;84;21082;-79
2021/06/23 07:21:05;;;;;;;23.67;18.27;;;;;;;21.97;90.24;99138.53;4135084;84;21129;-81
2021/06/23 07:27:07;;;;;;;25.27;16.55;;;;;;;22.00;90.49;99142.60;4157386;84;21065;-80
2021/06/23 07:33:09;;;;;;;26.57;18.87;;;;;;;22.02;90.24;99143.55;4159852;84;21104;-80
2021/06/23 07:39:17;;;;;;;23.57;16.27;;;;;;;22.06;89.95;99149.77;4187734;84;21108;-80
2021/06/23 07:45:19;;;;;;;25.43;15.33;;;;;;;22.04;89.75;99155.01;4165407;84;21039;-79
2021/06/23 07:51:28;;;;;;;21.30;13.88;;;;;;;22.12;89.83;99157.73;4159995;83;21059;-81
2021/06/23 08:10:09;;;;;;;16.85;12.45;;;;;;;22.45;89.30;99157.62;4145369;84;21017;-79
2021/06/23 08:16:10;;;;;;;18.67;13.15;;;;;;;22.52;89.09;99161.60;4154753;84;21078;-79
2021/06/23 08:22:12;;;;;;;15.70;11.85;;;;;;;22.57;89.15;99146.45;4156479;84;21128;-77
2021/06/23 08:28:16;;;;;;;23.75;13.15;;;;;;;22.55;89.23;99157.27;4129889;84;21057;-79
2021/06/23 08:34:18;;;;;;;18.50;13.32;;;;;;;22.51;89.22;99156.63;4149980;84;21085;-79
2021/06/23 08:40:20;;;;;;;19.27;15.13;;;;;;;22.29;89.01;99175.28;4151776;84;21493;-79
2021/06/23 08:46:22;;;;;;;24.27;16.70;;;;;;;22.09;89.21;99179.54;4150687;84;21025;-78
2021/06/23 08:52:23;;;;;;;21.48;16.65;;;;;;;21.98;89.30;99186.06;4147836;83;21074;-79
2021/06/23 08:58:24;;;;;;;21.97;17.60;;;;;;;21.99;89.71;99194.61;4155761;82;21048;-79
2021/06/23 09:04:27;;;;;;;23.15;16.45;;;;;;;22.02;89.67;99192.33;4152663;84;20981;-80
2021/06/23 09:10:35;;;;;;;21.97;17.07;;;;;;;22.03;89.70;99193.87;4156083;84;21085;-80
2021/06/23 09:16:36;;;;;;;24.35;17.87;;;;;;;22.08;89.74;99200.29;4154150;84;21499;-80
2021/06/23 09:22:45;;;;;;;22.82;16.77;;;;;;;22.12;89.72;99196.77;4151265;84;21565;-80
2021/06/23 09:29:11;;;;;;;25.70;17.07;;;;;;;22.26;89.46;99201.88;4151327;84;21568;-80
2021/06/23 09:35:16;;;;;;;24.05;17.23;;;;;;;22.37;89.56;99210.07;4151978;84;21048;-80
2021/06/23 09:41:33;;;;;;;26.25;18.62;;;;;;;22.38;89.68;99210.86;4164094;84;21077;-81
2021/06/23 09:47:38;;;;;;;29.75;18.77;;;;;;;22.50;89.72;99199.68;4156531;83;21017;-82
2021/06/23 09:53:43;;;;;;;22.48;15.03;;;;;;;22.60;89.46;99203.34;4137702;84;21081;-81
2021/06/23 09:59:50;;;;;;;22.65;17.05;;;;;;;22.77;88.90;99204.14;4138387;84;21532;-81
2021/06/23 10:05:55;;;;;;;;;;;;;;;22.70;88.57;99203.61;4156997;84;22260;-81
2021/06/23 10:12:02;;;;;;;26.60;18.10;;;;;;;22.73;87.83;99213.26;4151824;83;20180;-81
2021/06/23 10:18:06;;;;;;;29.92;16.67;;;;;;;22.72;88.07;99215.11;4151348;84;21047;-82
2021/06/23 10:24:10;;;;;;;22.93;16.65;;;;;;;22.76;88.09;99210.17;4155150;84;21087;-82
2021/06/23 10:30:17;;;;;;;20.62;15.13;;;;;;;22.82;88.08;99209.15;4153553;84;21359;-82
2021/06/23 10:36:19;;;;;;;21.05;15.35;;;;;;;22.98;87.73;99214.56;4149127;84;21057;-83
2021/06/23 10:42:26;;;;;;;21.97;16.90;;;;;;;23.18;87.54;99205.87;4138146;84;21033;-83
2021/06/23 10:48:57;;;;;;;24.65;16.40;;;;;;;23.25;87.26;99216.83;4148097;83;21703;-82
2021/06/23 10:55:23;;;;;;;21.17;16.02;;;;;;;23.25;86.98;99204.26;4156132;84;21558;-82
2021/06/23 11:01:25;;;;;;;23.32;16.07;;;;;;;23.32;86.85;99214.39;4150095;84;21047;-82
2021/06/23 11:07:46;;;;;;;25.92;15.70;;;;;;;23.41;86.78;99209.65;4148370;84;21716;-84
2021/06/23 11:13:50;;;;;;;24.32;15.65;;;;;;;23.49;86.79;99205.33;4149521;84;21078;-82
2021/06/23 11:19:55;;;;;;;27.62;17.65;;;;;;;23.63;87.07;99201.23;4155717;84;22219;-82
2021/06/23 11:26:01;;;;;;;25.80;18.57;;;;;;;23.56;86.56;99200.09;4155809;84;21058;-82
2021/06/23 11:32:07;;;;;;;21.87;15.10;;;;;;;23.56;86.33;99199.48;4152360;84;21596;-82
2021/06/23 11:38:11;;;;;;;23.15;15.10;;;;;;;23.63;86.32;99204.03;4153964;84;21078;-82
2021/06/23 11:44:12;;;;;;;23.15;18.50;;;;;;;23.75;86.14;99202.55;4154599;84;21123;-82
2021/06/23 11:50:14;;;;;;;22.93;17.07;;;;;;;23.66;85.27;99205.30;4156854;83;21011;-84
2021/06/23 11:56:16;;;;;;;26.57;17.52;;;;;;;23.72;85.21;99200.67;4152026;84;21067;-82
2021/06/23 12:02:17;;;;;;;23.80;17.40;;;;;;;23.84;85.37;99199.00;4153534;84;21054;-82
2021/06/23 12:08:19;;;;;;;26.40;18.87;;;;;;;24.04;85.07;99196.02;4153983;84;21036;-83
2021/06/23 12:14:21;;;;;;;24.85;19.52;;;;;;;24.20;84.45;99193.58;4089318;85;21697;-83
2021/06/23 12:20:30;;;;;;;24.77;16.93;;;;;;;24.25;84.16;99199.97;4090106;85;21089;-82
2021/06/23 12:26:32;;;;;;;24.52;17.45;;;;;;;24.37;83.73;99201.25;4171059;84;21386;-82
2021/06/23 12:32:35;;;;;;;23.95;16.93;;;;;;;24.35;83.28;99205.77;4170976;84;21050;-82
2021/06/23 12:38:37;;;;;;;20.97;15.50;;;;;;;24.26;83.22;99204.31;4096361;85;21060;-82
2021/06/23 12:44:44;;;;;;;22.48;16.42;;;;;;;24.20;83.19;99203.37;4155199;84;21057;-83
2021/06/23 12:50:50;;;;;;;22.45;16.40;;;;;;;24.18;83.26;99203.83;4149322;83;21630;-82
2021/06/23 12:56:52;;;;;;;;;;;;;;;24.20;83.11;99192.97;4197214;83;21077;-82
2021/06/23 13:02:54;;;;;;;22.25;16.30;;;;;;;24.24;82.79;99189.39;4124899;85;20167;-83
2021/06/23 13:08:55;;;;;;;19.70;16.32;;;;;;;24.20;82.83;99185.19;4193436;83;21649;-83
2021/06/23 13:15:05;;;;;;;22.70;15.53;;;;;;;24.24;82.66;99182.40;4110883;85;21633;-83
2021/06/23 13:21:06;;;;;;;21.27;15.98;;;;;;;24.36;82.56;99189.91;4193349;83;21006;-82
2021/06/23 13:27:10;;;;;;;23.22;18.70;;;;;;;24.48;82.32;99196.60;4176040;83;21069;-83
2021/06/23 13:33:11;;;;;;;22.15;18.15;;;;;;;24.56;82.03;99174.86;4192293;83;21042;-83
2021/06/23 13:39:14;;;;;;;24.43;17.67;;;;;;;24.75;82.00;99177.08;4176262;83;21059;-83
2021/06/23 13:45:16;;;;;;;20.88;16.30;;;;;;;24.91;82.02;99186.59;4186139;83;21057;-82
2021/06/23 13:51:17;;;;;;;25.43;17.82;;;;;;;25.09;81.46;99194.97;4172665;83;21546;-83
2021/06/23 13:57:19;;;;;;;23.00;18.52;;;;;;;25.19;81.04;99187.34;4125028;84;21109;-83
2021/06/23 14:03:20;;;;;;;23.40;17.27;;;;;;;25.29;80.33;99183.30;4130080;84;20966;-83
2021/06/23 14:09:26;;;;;;;20.65;16.55;;;;;;;25.32;79.89;99173.33;4135480;84;21061;-83
2021/06/23 14:15:30;;;;;;;21.20;17.07;;;;;;;25.41;79.66;99164.14;4127720;84;21077;-83
2021/06/23 14:21:32;;;;;;;22.35;17.32;;;;;;;25.43;79.59;99167.26;4128866;84;21536;-84
2021/06/23 14:27:34;;;;;;;28.57;16.32;;;;;;;25.59;79.13;99168.31;4132261;84;21479;-83
2021/06/23 14:33:35;;;;;;;24.40;17.48;;;;;;;25.66;79.01;99162.36;4126608;84;21018;-83
2021/06/23 14:39:36;;;;;;;21.52;17.62;;;;;;;25.79;78.18;99164.34;4128711;84;22273;-83
2021/06/23 14:45:46;;;;;;;20.32;17.02;;;;;;;25.84;78.45;99172.88;4128699;85;21073;-83
2021/06/23 14:51:47;;;;;;;25.70;18.23;;;;;;;25.88;77.83;99180.52;4129510;84;21074;-83
2021/06/23 14:57:59;;;;;;;22.55;17.60;;;;;;;25.97;77.46;99182.48;4132208;85;21504;-83
2021/06/23 15:04:11;;;;;;;26.77;17.95;;;;;;;26.02;77.21;99177.05;4134372;84;21884;-81
2021/06/23 15:17:13;;;;;;;28.67;21.20;;;;;;;25.85;76.52;99178.66;4127610;84;21016;-83
2021/06/23 15:23:14;;;;;;;25.68;19.98;;;;;;;25.79;76.24;99184.73;4128281;83;21558;-83
2021/06/23 15:29:19;;;;;;;24.82;19.75;;;;;;;25.74;75.97;99176.20;4125341;84;21580;-84
2021/06/23 15:35:27;;;;;;;26.55;19.32;;;;;;;25.70;75.82;99185.41;4138190;84;21051;-83
2021/06/23 15:41:38;;;;;;;25.97;20.02;;;;;;;25.59;75.69;99186.53;4136521;84;21059;-82
2021/06/23 15:47:46;;;;;;;28.52;20.17;;;;;;;25.59;75.69;99186.53;4127118;85;21949;-82
2021/06/23 15:54:00;;;;;;;28.42;21.17;;;;;;;25.56;75.95;99178.42;4117560;84;21107;-82
2021/06/23 16:00:09;;;;;;;32.67;21.70;;;;;;;25.56;75.95;99178.42;4187012;83;21120;-82
2021/06/23 16:06:17;;;;;;;27.13;19.92;;;;;;;25.54;75.51;99176.70;4200178;83;21048;-83
2021/06/23 16:12:21;;;;;;;27.93;21.00;;;;;;;25.49;75.64;99167.56;4187498;84;21532;-83
2021/06/23 16:18:24;;;;;;;31.82;21.87;;;;;;;25.50;75.80;99164.11;4204959;83;21533;-83
2021/06/23 16:24:38;;;;;;;30.17;23.10;;;;;;;25.54;75.76;99170.34;4186015;84;21078;-83
2021/06/23 16:30:42;;;;;;;31.33;22.48;;;;;;;25.48;75.73;99176.44;4201065;83;21021;-83
2021/06/23 16:36:45;;;;;;;25.37;21.62;;;;;;;25.44;75.50;99182.20;4148541;84;21597;-83
2021/06/23 16:42:47;;;;;;;30.75;24.07;;;;;;;25.38;75.48;99184.70;4125188;85;21046;-84
2021/06/23 16:48:48;;;;;;;32.25;23.77;;;;;;;25.30;75.40;99176.43;4127755;84;22056;-84
2021/06/23 16:54:55;;;;;;;27.77;21.45;;;;;;;25.22;75.20;99163.98;4096008;85;21904;-83
2021/06/23 17:01:00;;;;;;;29.67;21.75;;;;;;;25.20;75.26;99179.87;4169190;83;21026;-82
2021/06/23 17:07:08;;;;;;;30.12;23.05;;;;;;;25.17;75.50;99187.02;4172353;83;21088;-82
2021/06/23 17:13:23;;;;;;;26.80;22.60;;;;;;;25.17;75.60;99192.63;4172759;84;21949;-83
2021/06/23 17:19:27;;;;;;;26.68;22.10;;;;;;;24.97;75.96;99202.91;4183283;84;21014;-83
2021/06/23 17:25:28;;;;;;;28.62;21.62;;;;;;;24.90;76.26;99199.02;4169887;84;21088;-85
2021/06/23 17:31:31;;;;;;;30.75;21.65;;;;;;;24.79;76.56;99202.92;4166130;84;21517;-83
2021/06/23 17:37:35;;;;;;;29.60;22.40;;;;;;;24.68;76.68;99211.61;4183563;83;21018;-82
2021/06/23 17:43:37;;;;;;;28.12;23.00;;;;;;;24.49;76.89;99226.16;4181020;83;20986;-83
2021/06/23 17:49:41;;;;;;;30.57;22.82;;;;;;;24.30;77.34;99228.75;4169721;83;21053;-82
2021/06/23 17:55:43;;;;;;;30.88;23.77;;;;;;;24.21;77.52;99240.66;4186439;83;21161;-83
2021/06/23 18:01:46;;;;;;;28.17;23.00;;;;;;;24.24;77.78;99237.59;4174147;83;21123;-82
2021/06/23 18:07:47;;;;;;;28.35;24.65;;;;;;;24.26;77.83;99236.48;4187952;83;21005;-83
2021/06/23 18:13:53;;;;;;;32.00;23.50;;;;;;;24.11;78.31;99246.69;4168313;83;21055;-83
2021/06/23 18:19:54;;;;;;;29.15;23.05;;;;;;;24.10;78.37;99231.92;4157640;83;21922;-83
2021/06/23 18:26:00;;;;;;;32.93;25.20;;;;;;;24.01;78.62;99237.48;4168370;83;21049;-83
2021/06/23 18:32:03;;;;;;;32.95;25.23;;;;;;;24.00;78.91;99236.55;4168717;83;21011;-82
2021/06/23 18:38:06;;;;;;;27.95;23.45;;;;;;;24.03;78.92;99244.80;4190539;83;21039;-82
2021/06/23 18:44:19;;;;;;;29.18;23.30;;;;;;;23.96;78.97;99238.69;3986856;84;9999617;-82
2021/06/23 18:50:21;;;;;;;30.02;22.93;;;;;;;23.85;79.02;99244.66;4119764;85;21104;-84
2021/06/23 18:56:24;;;;;;;29.48;23.12;;;;;;;23.62;79.49;99263.33;4114816;85;21052;-82
2021/06/23 19:02:27;;;;;;;29.27;23.47;;;;;;;23.35;80.10;99274.94;4128768;84;20978;-83
2021/06/23 19:08:29;;;;;;;32.42;23.85;;;;;;;23.38;80.49;99274.81;4129469;85;21481;-82
2021/06/23 19:21:04;;;;;;;36.13;26.10;;;;;;;23.45;80.90;99268.16;4104651;84;21079;-82
2021/06/23 19:27:07;;;;;;;32.05;23.75;;;;;;;23.39;81.08;99277.76;4129656;84;20984;-83
2021/06/23 19:33:11;;;;;;;31.17;24.85;;;;;;;23.30;81.35;99283.89;4130070;84;21068;-83
2021/06/23 19:39:13;;;;;;;29.75;23.20;;;;;;;23.29;81.64;99287.92;4122571;84;21086;-83
2021/06/23 19:45:28;;;;;;;30.12;22.07;;;;;;;23.15;81.96;99293.34;4011518;84;10000171;-83
2021/06/23 19:51:32;;;;;;;34.88;25.30;;;;;;;23.15;82.44;99284.97;4135551;83;21035;-84
2021/06/23 19:57:41;;;;;;;35.95;25.45;;;;;;;23.11;82.72;99288.51;4113626;84;22051;-83
2021/06/23 20:03:43;;;;;;;33.33;22.87;;;;;;;23.01;83.05;99291.83;4136770;84;21112;-83
2021/06/23 20:09:44;;;;;;;34.75;26.68;;;;;;;22.98;83.33;99291.95;4207623;83;21423;-82
2021/06/23 20:15:47;;;;;;;37.70;26.68;;;;;;;22.88;83.89;99286.89;4205993;83;21033;-82
2021/06/23 20:22:26;;;;;;;;;;;;;;;;;;;;;
2021/06/23 20:28:26;;;;;;;37.70;27.98;;;;;;;22.80;84.62;99286.95;4157659;83;21050;-81
2021/06/23 20:41:27;;;;;;;33.83;25.72;;;;;;;22.76;85.01;99276.55;4160324;84;21071;-82
2021/06/23 20:47:30;;;;;;;39.38;30.25;;;;;;;22.75;84.85;99276.99;4204866;83;21315;-81
2021/06/23 20:53:51;;;;;;;;;;;;;;;;;;;;;
2021/06/23 21:00:02;;;;;;;;;;;;;;;;;;;;;
2021/06/23 21:06:14;;;;;;;41.65;31.52;;;;;;;22.77;84.69;99283.67;4204181;83;21091;-83
2021/06/23 21:12:33;;;;;;;37.85;27.67;;;;;;;22.79;84.84;99278.43;4214039;82;21116;-82
2021/06/23 21:19:08;;;;;;;33.42;27.07;;;;;;;22.76;84.41;99270.17;4188516;83;21085;-82
2021/06/23 21:25:41;;;;;;;36.77;27.13;;;;;;;22.82;84.47;99279.53;4169350;83;21073;-82
2021/06/23 21:32:02;;;;;;;30.85;24.18;;;;;;;22.73;84.01;99271.86;4197347;83;21510;-82
2021/06/23 21:38:29;;;;;;;27.58;22.13;;;;;;;22.59;83.93;99269.55;4198209;83;21308;-81
2021/06/23 21:45:04;;;;;;;30.10;22.00;;;;;;;22.46;83.90;99272.13;4205050;83;21066;-82
2021/06/23 21:51:25;;;;;;;24.55;19.57;;;;;;;22.40;83.90;99285.09;4198422;83;21025;-82
2021/06/23 21:57:52;;;;;;;25.30;19.80;;;;;;;22.30;83.99;99291.16;4127538;83;21070;-81
2021/06/23 22:04:38;;;;;;;29.15;20.52;;;;;;;22.32;84.17;99290.72;4182578;84;21522;-83
2021/06/23 22:11:11;;;;;;;29.02;22.32;;;;;;;22.44;84.02;99292.74;4157059;84;21035;-81
2021/06/23 22:17:26;;;;;;;;;;;;;;;;;;;;;
2021/06/23 22:23:53;;;;;;;;;;;;;;;;;;;;;
2021/06/23 22:30:15;;;;;;;31.23;21.23;;;;;;;22.24;83.98;99262.91;4162815;84;21052;-82
2021/06/23 22:36:25;;;;;;;32.60;21.85;;;;;;;22.26;84.05;99255.66;4101224;85;21101;-83
2021/06/23 22:42:28;;;;;;;30.43;22.58;;;;;;;22.29;84.07;99264.52;4099486;85;21037;-82
2021/06/23 22:55:57;;;;;;;29.33;22.90;;;;;;;22.21;84.02;99245.66;4139290;83;21036;-81
2021/06/23 23:02:19;;;;;;;25.95;19.67;;;;;;;22.16;83.90;99239.27;4042143;86;21692;-80
2021/06/23 23:08:42;;;;;;;;;;;;;;;;;;;;;
2021/06/23 23:14:33;;;;;;;24.10;19.23;;;;;;;22.01;83.99;99223.59;4055286;86;21591;-81
2021/06/23 23:20:41;;;;;;;;;;;;;;;21.98;83.86;99238.42;4068462;86;21022;-79
2021/06/23 23:26:54;;;;;;;23.95;18.57;;;;;;;21.89;84.10;99235.52;4147420;83;20115;-82
2021/06/23 23:33:16;;;;;;;26.05;19.30;;;;;;;21.84;84.21;99221.34;4213596;83;21049;-82
2021/06/23 23:39:35;;;;;;;30.00;18.42;;;;;;;21.84;84.29;99219.35;4196505;83;21086;-82
2021/06/23 23:45:45;;;;;;;23.05;18.02;;;;;;;21.86;84.44;99235.02;4187653;82;21531;-82
2021/06/23 23:52:12;;;;;;;26.60;20.35;;;;;;;21.91;84.35;99217.72;4200933;83;21002;-81
2021/06/23 23:58:28;;;;;;;26.07;18.12;;;;;;;21.81;84.36;99221.64;4210425;82;21019;-82
